OETR

Turaif Domestic Airport

Saudi Arabia
TAF OETR 232300Z 2400/2506 16010G20KT 8000 SCT040 TEMPO 2406/2414 4000 BLDU TSRA FEW035CB
Issued Valid From Valid To
Oct-23 @ 23:00 UTC
(6 hours ago)
Oct-24 @ 00:00 UTC
(5 hours ago)
Oct-25 @ 06:00 UTC
(-1 days ago)
Oct-24 @ 00:00 to Oct-25 @ 06:00
TAF OETR 232300Z 2400/2506 16010G20KT 8000 SCT040
Wind Visibility Clouds
160° at 10 knots
 Gusting to 20 knots
7,998 meters
  • Scattered at 4,000' AGL
Temporary Oct-24 @ 06:00 to Oct-24 @ 14:00
TEMPO 2406/2414 4000 BLDU TSRA FEW035CB
Visibility Clouds Conditions
4,007 meters
  • Few at 3,500' AGL
  • Blowing
  • Dust
  • Thunderstorm
  • Rain
TAF OETR 232300Z 2400/2506 16010G20KT 8000 SCT040 TEMPO 2406/2414 4000 BLDU TSRA FEW035CB
Issued Oct-23 @ 23:00 UTC
(6 hours ago)
Valid From Oct-24 @ 00:00 UTC
(5 hours ago)
Valid To Oct-25 @ 06:00 UTC
(-1 days ago)
Oct-24 @ 00:00 - Oct-25 @ 06:00
Wind Visibility
160° at 10 knots
 Gusting to 20 knots
7,998 meters
Clouds
  • Scattered at 4,000' AGL
Temporary Oct-24 @ 06:00 - Oct-24 @ 14:00
Clouds
  • Few at 3,500' AGL
Conditions
  • Blowing
  • Dust
  • Thunderstorm
  • Rain